Johnny James — WYT8450 — position and weather

sailwx.info

Track history (hours):
 
Tides and Currents Weather Stations Pressure Air Temp Water Temp Dewpoint Dewpoint Depression Visibility Wind Speed Wind Dir Waves Ship Positions

Johnny James

Owner: CALLAIS & SONS INC, CUT OFF, LA. More information available from US FCC via Universal Licensing System and Coast Guard Vessel Documentation Center.

Last reported at 2017-Apr-29 00:53 UTC. Time now 2017-Aug-18 20:26 UTC.
Position N 29°34' W 090°29'.
Warning: this ship's position is months out of date.

Length 204 m; draft 3 m.

Type: . MMSI: 367005220.

Date/timePositionNaut miles runAvg speedWind from/ knotsBaromVisibWave heightAir tempDewpointWater temp
2017-Apr-29 00:53N 29°34' W 090°29'3 6.7
2017-Apr-29 00:30N 29°34' W 090°32'3 6.6
2017-Apr-29 00:00N 29°35' W 090°36'3 6.2
2017-Apr-28 23:30N 29°36' W 090°39'3 6.1
2017-Apr-28 23:00N 29°37' W 090°43'3 5.6
2017-Apr-28 22:30N 29°34' W 090°44'2 3.5
2017-Apr-28 22:00N 29°33' W 090°45'0 0.4
2017-Apr-28 21:30N 29°33' W 090°45'2 3.6
2017-Apr-28 21:00N 29°32' W 090°47'3 5.9
2017-Apr-28 20:30N 29°32' W 090°51'3 5.8
2017-Apr-28 19:59N 29°33' W 090°54'56 5.1
2017-Apr-28 08:48N 29°51' W 091°56'0 0.1
2017-Apr-28 08:10N 29°51' W 091°56'1 5.8
2017-Apr-28 08:00N 29°51' W 091°57'3 6.2
2017-Apr-28 07:31N 29°50' W 092°00'3 6.0
2017-Apr-28 06:59N 29°49' W 092°04'3 5.7
2017-Apr-28 06:30N 29°48' W 092°07'3 6.0
2017-Apr-28 06:01N 29°47' W 092°10'2 3.0
2017-Apr-28 05:29N 29°47' W 092°12'1 1.1
2017-Apr-28 05:00N 29°47' W 092°12'1 2.0
2017-Apr-28 04:29N 29°48' W 092°13'1 2.8
2017-Apr-28 04:01N 29°48' W 092°15'3 5.9
2017-Apr-28 03:31N 29°50' W 092°18'3 5.9
2017-Apr-28 03:01N 29°51' W 092°21'3 5.8
2017-Apr-28 02:31N 29°53' W 092°23'3 6.1
2017-Apr-28 02:01N 29°53' W 092°27'3 6.4
2017-Apr-28 01:30N 29°54' W 092°30'29 5.9
2017-Apr-27 20:32N 29°56' W 093°04'0 1.6
2017-Apr-27 20:28N 29°56' W 093°04'3 5.4
2017-Apr-27 20:00N 29°56' W 093°07'3 5.9
2017-Apr-27 19:31N 29°57' W 093°10'3 6.5
2017-Apr-27 19:01N 29°59' W 093°13'3 6.0
2017-Apr-27 18:31N 30°02' W 093°15'3 5.5
2017-Apr-27 18:01N 30°04' W 093°16'2 3.7
2017-Apr-27 17:30N 30°05' W 093°18'1 1.5
2017-Apr-27 16:59N 30°06' W 093°18'0 0.1
2017-Apr-27 16:31N 30°06' W 093°18'2 4.8
2017-Apr-27 16:01N 30°05' W 093°20'2 4.0
2017-Apr-27 15:31N 30°04' W 093°22'3 5.6
2017-Apr-27 15:01N 30°04' W 093°26'6 6.1
2017-Apr-27 14:00N 30°04' W 093°33'3 6.1
2017-Apr-27 13:30N 30°04' W 093°36'4 6.6
2017-Apr-27 12:58N 30°04' W 093°40'3 6.3
2017-Apr-27 12:26N 30°03' W 093°44'  
Track history (hours):
 
Tides and Currents Weather Stations Pressure Air Temp Water Temp Dewpoint Dewpoint Depression Visibility Wind Speed Wind Dir Waves Ship Positions

Johnny James

Owner: CALLAIS & SONS INC, CUT OFF, LA. More information available from US FCC via Universal Licensing System and Coast Guard Vessel Documentation Center.

Last reported at 2017-Apr-29 00:53 UTC. Time now 2017-Aug-18 20:26 UTC.
Position N 29°34' W 090°29'.
Warning: this ship's position is months out of date.

Length 204 m; draft 3 m.

Type: . MMSI: 367005220.

Date/timePositionNaut miles runAvg speedWind from/ knotsBaromVisibWave heightAir tempDewpointWater temp
2017-Apr-29 00:53N 29°34' W 090°29'3 6.7
2017-Apr-29 00:30N 29°34' W 090°32'3 6.6
2017-Apr-29 00:00N 29°35' W 090°36'3 6.2
2017-Apr-28 23:30N 29°36' W 090°39'3 6.1
2017-Apr-28 23:00N 29°37' W 090°43'3 5.6
2017-Apr-28 22:30N 29°34' W 090°44'2 3.5
2017-Apr-28 22:00N 29°33' W 090°45'0 0.4
2017-Apr-28 21:30N 29°33' W 090°45'2 3.6
2017-Apr-28 21:00N 29°32' W 090°47'3 5.9
2017-Apr-28 20:30N 29°32' W 090°51'3 5.8
2017-Apr-28 19:59N 29°33' W 090°54'56 5.1
2017-Apr-28 08:48N 29°51' W 091°56'0 0.1
2017-Apr-28 08:10N 29°51' W 091°56'1 5.8
2017-Apr-28 08:00N 29°51' W 091°57'3 6.2
2017-Apr-28 07:31N 29°50' W 092°00'3 6.0
2017-Apr-28 06:59N 29°49' W 092°04'3 5.7
2017-Apr-28 06:30N 29°48' W 092°07'3 6.0
2017-Apr-28 06:01N 29°47' W 092°10'2 3.0
2017-Apr-28 05:29N 29°47' W 092°12'1 1.1
2017-Apr-28 05:00N 29°47' W 092°12'1 2.0
2017-Apr-28 04:29N 29°48' W 092°13'1 2.8
2017-Apr-28 04:01N 29°48' W 092°15'3 5.9
2017-Apr-28 03:31N 29°50' W 092°18'3 5.9
2017-Apr-28 03:01N 29°51' W 092°21'3 5.8
2017-Apr-28 02:31N 29°53' W 092°23'3 6.1
2017-Apr-28 02:01N 29°53' W 092°27'3 6.4
2017-Apr-28 01:30N 29°54' W 092°30'29 5.9
2017-Apr-27 20:32N 29°56' W 093°04'0 1.6
2017-Apr-27 20:28N 29°56' W 093°04'3 5.4
2017-Apr-27 20:00N 29°56' W 093°07'3 5.9
2017-Apr-27 19:31N 29°57' W 093°10'3 6.5
2017-Apr-27 19:01N 29°59' W 093°13'3 6.0
2017-Apr-27 18:31N 30°02' W 093°15'3 5.5
2017-Apr-27 18:01N 30°04' W 093°16'2 3.7
2017-Apr-27 17:30N 30°05' W 093°18'1 1.5
2017-Apr-27 16:59N 30°06' W 093°18'0 0.1
2017-Apr-27 16:31N 30°06' W 093°18'2 4.8
2017-Apr-27 16:01N 30°05' W 093°20'2 4.0
2017-Apr-27 15:31N 30°04' W 093°22'3 5.6
2017-Apr-27 15:01N 30°04' W 093°26'6 6.1
2017-Apr-27 14:00N 30°04' W 093°33'3 6.1
2017-Apr-27 13:30N 30°04' W 093°36'4 6.6
2017-Apr-27 12:58N 30°04' W 093°40'3 6.3
2017-Apr-27 12:26N 30°03' W 093°44'  

Dump ship's entire track history